Fairchild AFB, WA

9:33 PM PST on February 24, 2017 (GMT -0800)
Fairchild Air Force Base

Weather History for KSKA - April, 2014

Change the Weather History Date:

Tuesday, April 22, 2014

  Actual Average Record
Temperature  
Mean Temperature 44 °F -  
Max Temperature 51 °F 57 °F 77 °F (2012)
Min Temperature 36 °F 35 °F 27 °F (2008)
Degree Days  
Heating Degree Days 22    
Moisture  
Dew Point 39 °F    
Average Humidity 82    
Maximum Humidity 100    
Minimum Humidity 49    
Precipitation  
Precipitation 0.10 in - - ()
Sea Level Pressure  
Sea Level Pressure 29.71 in    
Wind  
Wind Speed 11 mph (SW)    
Max Wind Speed 22 mph    
Max Gust Speed 31 mph    
Visibility 9 miles    
Events Rain    
Averages and records for this station are not official NWS values.
T = Trace of Precipitation, MM = Missing Value Source: NWS Daily Summary

Daily Weather History Graph

Daily Weather History Graph

Search for Another Location

Airport or City:

Trip Planner

Search our weather history database for the weather conditions in past years. The results will help you decide how hot, cold, wet, or windy it might be!

Date:

Astronomy

Apr. 22, 2014 Rise Set
Actual Time 5:48 AM PDT 7:50 PM PDT
Civil Twilight 5:15 AM PDT 8:23 PM PDT
Nautical Twilight 4:34 AM PDT 9:04 PM PDT
Astronomical Twilight 3:49 AM PDT 9:50 PM PDT
Moon 2:10 AM PDT (4/22) 12:28 PM PDT (4/22)
Length of Visible Light 15h 08m
Length of Day
14h 01m
Last Quarter, 45% of the Moon is Illuminated
Apr 22
Last Quarter
Apr 28
New
May 6
First Quarter
May 14
Full
May 21
Last Quarter

Hourly Weather History & Observations

Time (PDT) Temp. Windchill Dew Point Humidity Pressure Visibility Wind Dir Wind Speed Gust Speed Precip Events Conditions
12:58 AM 49.3 °F - 37.4 °F 64% 29.70 in 10.0 mi North 4.6 mph - N/A   Partly Cloudy
1:04 AM 50.0 °F - 37.4 °F 62% 29.69 in 10.0 mi NNW 4.6 mph - N/A Rain Light Rain
1:13 AM 48.2 °F - 37.4 °F 66% 29.69 in 10.0 mi NNW 5.8 mph - N/A   Mostly Cloudy
1:58 AM 48.7 °F - 37.4 °F 65% 29.68 in 10.0 mi ENE 6.9 mph - 0.00 in   Partly Cloudy
2:58 AM 46.4 °F 44.3 °F 38.3 °F 73% 29.69 in 10.0 mi West 4.6 mph - N/A   Overcast
3:58 AM 45.5 °F 41.8 °F 39.6 °F 80% 29.67 in 10.0 mi WNW 6.9 mph - N/A   Overcast
4:58 AM 44.2 °F 41.8 °F 39.4 °F 83% 29.67 in 10.0 mi WSW 4.6 mph - N/A   Overcast
5:05 AM 44.6 °F 40.2 °F 39.2 °F 81% 29.66 in 10.0 mi WSW 8.1 mph - N/A   Mostly Cloudy
5:26 AM 44.6 °F 39.7 °F 39.2 °F 81% 29.66 in 10.0 mi WSW 9.2 mph - N/A   Mostly Cloudy
5:37 AM 44.6 °F 39.2 °F 41.0 °F 87% 29.66 in 10.0 mi SW 10.4 mph - N/A   Mostly Cloudy
5:55 AM 44.6 °F 39.7 °F 41.0 °F 87% 29.66 in 10.0 mi WSW 9.2 mph - N/A   Light Drizzle
5:58 AM 45.0 °F 39.3 °F 41.9 °F 89% 29.67 in 10.0 mi SW 11.5 mph - 0.00 in   Light Drizzle
6:13 AM 44.6 °F 38.4 °F 42.8 °F 93% 29.66 in 10.0 mi WSW 12.7 mph - N/A Rain Light Rain
6:18 AM 44.6 °F 37.8 °F 44.6 °F 100% 29.66 in 10.0 mi WSW 15.0 mph - N/A Rain Light Rain
6:43 AM 44.6 °F 38.4 °F 42.8 °F 93% 29.67 in 10.0 mi SW 12.7 mph - N/A Rain Light Rain
6:53 AM 44.6 °F 38.1 °F 42.8 °F 93% 29.67 in 9.0 mi SW 13.8 mph - N/A Rain Light Rain
6:58 AM 43.9 °F 37.9 °F 43.2 °F 97% 29.68 in 6.0 mi SW 11.5 mph - 0.01 in Rain Light Rain
7:23 AM 44.6 °F 38.8 °F 42.8 °F 93% 29.67 in 6.0 mi SW 11.5 mph - N/A Rain Rain
7:58 AM 43.3 °F 36.8 °F 42.8 °F 98% 29.70 in 10.0 mi SSW 12.7 mph - 0.05 in Rain Light Rain
8:13 AM 42.8 °F 34.8 °F 42.8 °F 100% 29.69 in 10.0 mi SW 17.3 mph - N/A Rain Light Rain
8:18 AM 42.8 °F 35.8 °F 41.0 °F 93% 29.69 in 10.0 mi SW 13.8 mph - N/A Rain Light Rain
8:33 AM 42.8 °F 35.4 °F 41.0 °F 93% 29.69 in 7.0 mi SSW 15.0 mph 20.7 mph N/A Rain Light Rain
8:38 AM 42.8 °F 34.5 °F 41.0 °F 93% 29.69 in 7.0 mi SSW 18.4 mph 20.7 mph N/A Rain Light Rain
8:43 AM 42.8 °F 36.2 °F 41.0 °F 93% 29.69 in 7.0 mi SSW 12.7 mph - N/A Rain Light Rain
8:58 AM 42.4 °F 34.7 °F 41.7 °F 97% 29.71 in 10.0 mi SSW 16.1 mph - 0.02 in Rain Light Rain
9:33 AM 42.8 °F 35.4 °F 41.0 °F 93% 29.68 in 10.0 mi SSW 15.0 mph - N/A Rain Light Rain
9:43 AM 42.8 °F 36.6 °F 41.0 °F 93% 29.68 in 10.0 mi SSW 11.5 mph 21.9 mph N/A Rain Light Rain
9:58 AM 42.6 °F 34.9 °F 41.4 °F 95% 29.71 in 10.0 mi SSW 16.1 mph - 0.00 in   Light Drizzle
10:08 AM 42.8 °F 36.2 °F 41.0 °F 93% 29.69 in 6.0 mi SSW 12.7 mph - N/A Rain Light Rain
10:38 AM 42.8 °F 35.1 °F 42.8 °F 100% 29.69 in 4.0 mi SSW 16.1 mph - N/A Rain Light Rain
10:48 AM 42.8 °F 35.8 °F 42.8 °F 100% 29.69 in 7.0 mi SSW 13.8 mph 25.3 mph N/A   Light Drizzle
10:53 AM 42.8 °F 35.4 °F 41.0 °F 93% 29.70 in 6.0 mi South 15.0 mph 23.0 mph N/A   Light Drizzle
10:58 AM 43.3 °F 35.8 °F 41.5 °F 93% 29.73 in 6.0 mi SSW 16.1 mph 23.0 mph 0.00 in Rain Light Rain
11:13 AM 42.8 °F 35.4 °F 42.8 °F 100% 29.70 in 9.0 mi SSW 15.0 mph - N/A Rain Light Rain
11:23 AM 42.8 °F 35.8 °F 41.0 °F 93% 29.69 in 6.0 mi SSW 13.8 mph - N/A Rain Light Rain
11:43 AM 44.6 °F 36.6 °F 41.0 °F 87% 29.69 in 10.0 mi SSW 19.6 mph 25.3 mph N/A Rain Light Rain
11:53 AM 42.8 °F 34.5 °F 41.0 °F 93% 29.70 in 8.0 mi SSW 18.4 mph 25.3 mph N/A Rain Light Rain
11:58 AM 43.3 °F 35.2 °F 40.8 °F 91% 29.73 in 5.0 mi SSW 18.4 mph 23.0 mph 0.01 in Rain Light Rain
12:03 PM 44.6 °F 37.4 °F 41.0 °F 87% 29.70 in 6.0 mi SSW 16.1 mph 23.0 mph N/A Rain Light Rain
12:13 PM 44.6 °F 38.4 °F 41.0 °F 87% 29.70 in 10.0 mi SSW 12.7 mph - N/A Rain Light Rain
12:18 PM 44.6 °F 37.4 °F 41.0 °F 87% 29.69 in 10.0 mi SSW 16.1 mph 20.7 mph N/A   Light Drizzle
12:23 PM 42.8 °F 35.4 °F 41.0 °F 93% 29.69 in 10.0 mi SSW 15.0 mph 20.7 mph N/A Rain Light Rain
12:33 PM 42.8 °F 34.8 °F 41.0 °F 93% 29.70 in 7.0 mi SSW 17.3 mph 27.6 mph N/A Rain Light Rain
12:43 PM 42.8 °F 34.3 °F 41.0 °F 93% 29.70 in 10.0 mi SSW 19.6 mph - N/A   Light Drizzle
12:48 PM 42.8 °F 33.8 °F 41.0 °F 93% 29.70 in 10.0 mi SSW 21.9 mph 26.5 mph N/A Rain Light Rain
12:58 PM 43.3 °F 36.1 °F 41.2 °F 92% 29.73 in 10.0 mi SW 15.0 mph - 0.00 in Rain Light Rain
1:13 PM 42.8 °F 34.8 °F 41.0 °F 93% 29.70 in 10.0 mi SW 17.3 mph 25.3 mph N/A Rain Light Rain
1:23 PM 44.6 °F 36.9 °F 41.0 °F 87% 29.70 in 10.0 mi SW 18.4 mph - N/A   Light Drizzle
1:35 PM 46.4 °F 40.1 °F 41.0 °F 81% 29.71 in 10.0 mi SW 15.0 mph - N/A   Light Drizzle
1:50 PM 46.4 °F 39.8 °F 41.0 °F 81% 29.71 in 10.0 mi SW 16.1 mph 23.0 mph N/A   Light Drizzle
1:58 PM 46.8 °F - 40.6 °F 79% 29.73 in 10.0 mi SW 17.3 mph - 0.00 in   Light Drizzle
2:08 PM 46.4 °F 39.8 °F 39.2 °F 76% 29.71 in 10.0 mi SW 16.1 mph 24.2 mph N/A   Light Drizzle
2:53 PM 48.2 °F - 39.2 °F 71% 29.71 in 10.0 mi SW 15.0 mph - N/A   Light Drizzle
2:58 PM 48.0 °F - 38.5 °F 70% 29.73 in 10.0 mi SW 19.6 mph 24.2 mph 0.00 in   Light Drizzle
3:03 PM 50.0 °F - 37.4 °F 62% 29.71 in 10.0 mi SW 17.3 mph 24.2 mph N/A   Light Drizzle
3:58 PM 51.1 °F - 34.7 °F 54% 29.73 in 10.0 mi SSW 18.4 mph 26.5 mph 0.00 in   Light Drizzle
4:58 PM 49.3 °F - 32.5 °F 53% 29.75 in 10.0 mi SW 16.1 mph - 0.00 in   Light Drizzle
5:58 PM 44.8 °F 39.4 °F 34.9 °F 68% 29.77 in 7.0 mi WSW 10.4 mph 31.1 mph 0.01 in Rain Light Rain
6:03 PM 46.4 °F 41.5 °F 35.6 °F 66% 29.73 in 10.0 mi WSW 10.4 mph - N/A   Mostly Cloudy
6:18 PM 46.4 °F 41.1 °F 33.8 °F 62% 29.73 in 10.0 mi SW 11.5 mph - N/A   Light Drizzle
6:32 PM 46.4 °F 40.7 °F 33.8 °F 62% 29.73 in 10.0 mi SW 12.7 mph - N/A   Scattered Clouds
6:35 PM 46.4 °F 41.1 °F 32.0 °F 57% 29.73 in 10.0 mi SW 11.5 mph - N/A   Light Drizzle
6:44 PM 46.4 °F 41.5 °F 32.0 °F 57% 29.73 in 10.0 mi SW 10.4 mph - N/A   Clear
6:58 PM 47.1 °F - 32.7 °F 57% 29.76 in 10.0 mi SW 10.4 mph - 0.00 in   Clear
7:58 PM 43.7 °F 36.6 °F 25.5 °F 49% 29.79 in 10.0 mi WSW 15.0 mph - 0.00 in   Clear
8:58 PM 38.5 °F 30.7 °F 26.4 °F 62% 29.81 in 10.0 mi WSW 12.7 mph - 0.00 in   Clear
9:58 PM 36.1 °F 29.9 °F 29.3 °F 76% 29.84 in 10.0 mi SW 8.1 mph - N/A   Clear
10:58 PM 36.5 °F 28.7 °F 25.9 °F 65% 29.84 in 10.0 mi SW 11.5 mph - 0.00 in   Clear
11:58 PM 36.3 °F 28.9 °F 24.4 °F 62% 29.85 in 10.0 mi SW 10.4 mph - N/A   Clear